createdAt,value
2018-09-30T07:34:29.104Z,68.38
2018-09-30T07:35:22.470Z,68.1
2018-09-30T07:36:21.453Z,68.29
2018-09-30T07:37:20.226Z,68.38
2018-09-30T07:38:19.272Z,68.38
2018-09-30T07:39:17.946Z,68.13
2018-09-30T07:40:16.757Z,68.32
2018-09-30T07:41:17.057Z,68.41
2018-09-30T07:42:15.924Z,67.75
2018-09-30T07:43:14.521Z,67.36
2018-09-30T07:45:55.607Z,67.46
2018-09-30T07:46:54.477Z,67.46
2018-09-30T07:47:53.293Z,67.46
2018-09-30T07:48:52.440Z,67.36
2018-09-30T07:49:51.328Z,67.36
2018-09-30T07:50:50.119Z,67.55
2018-09-30T07:51:49.308Z,67.36
2018-09-30T07:52:47.969Z,68.23
2018-09-30T07:53:46.590Z,67.65
2018-09-30T07:54:45.273Z,67.36
2018-09-30T07:55:44.133Z,67.27
2018-09-30T07:58:29.058Z,67.46
2018-09-30T07:59:27.777Z,67.55
2018-09-30T08:00:26.511Z,67.84
2018-09-30T08:01:25.130Z,67.75
2018-09-30T08:02:23.876Z,66.99
2018-09-30T08:03:23.434Z,67.18
2018-09-30T08:04:22.421Z,66.79
2018-09-30T08:05:22.526Z,66.83
2018-09-30T08:06:19.862Z,67.02
2018-09-30T08:07:18.587Z,66.92
2018-09-30T08:08:17.940Z,67.21
2018-09-30T08:09:16.561Z,67.59
2018-09-30T08:10:16.562Z,67.46
2018-09-30T08:11:16.084Z,67.55
2018-09-30T08:12:14.472Z,67.84
2018-09-30T08:13:13.166Z,67.75
2018-09-30T08:14:11.799Z,68.23
2018-09-30T08:15:10.439Z,67.75
2018-09-30T08:26:30.041Z,68.23
2018-09-30T08:27:29.102Z,68.13
2018-09-30T08:28:27.775Z,68.13
2018-09-30T08:29:26.462Z,68.51
2018-09-30T08:30:25.924Z,67.84
2018-09-30T08:31:24.486Z,68.32
2018-09-30T08:32:23.053Z,68.13
2018-09-30T08:33:21.824Z,68.23
2018-09-30T08:34:20.420Z,68.74
2018-09-30T08:35:19.315Z,67.97
2018-09-30T08:36:18.017Z,68.35
2018-09-30T08:37:16.711Z,68.16
2018-09-30T08:38:16.298Z,68.26
2018-09-30T08:40:39.641Z,68.16
2018-09-30T08:41:41.220Z,68.16
2018-09-30T08:42:39.853Z,68.74
2018-09-30T08:43:39.168Z,68.26
2018-09-30T08:44:37.657Z,68.16
2018-09-30T08:45:36.400Z,68.26
2018-09-30T08:46:34.872Z,68.16
2018-09-30T08:47:34.346Z,67.78
2018-09-30T08:48:33.944Z,67.59
2018-09-30T08:49:32.545Z,67.59
2018-09-30T08:50:31.195Z,67.59
2018-09-30T08:51:29.971Z,67.49
2018-09-30T08:52:28.781Z,67.49
2018-09-30T08:53:29.113Z,67.59
2018-09-30T08:54:27.896Z,67.49
2018-09-30T08:55:28.176Z,68.16
2018-09-30T08:56:28.297Z,68.07
2018-09-30T08:57:28.891Z,68.26
2018-09-30T08:58:27.230Z,68.16
2018-09-30T08:59:26.165Z,68.16
2018-09-30T09:00:25.613Z,68.64
2018-09-30T09:01:24.448Z,68.16
2018-09-30T09:02:22.965Z,68.16
2018-09-30T09:03:40.432Z,68.1
2018-09-30T09:04:39.174Z,67.69
2018-09-30T09:05:37.927Z,67.63
2018-09-30T09:06:36.584Z,67.82
2018-09-30T09:07:35.305Z,67.72
2018-09-30T09:08:37.155Z,68.1
2018-09-30T09:09:35.572Z,67.72
2018-09-30T09:10:34.316Z,67.82
2018-09-30T09:11:32.935Z,67.72
2018-09-30T09:12:31.831Z,67.72
2018-09-30T09:13:36.360Z,67.91
2018-09-30T09:14:32.766Z,68.2
2018-09-30T09:15:31.751Z,68.01
2018-09-30T09:18:15.903Z,68.96
2018-09-30T09:19:14.622Z,69.35
2018-09-30T09:23:36.838Z,69.73
2018-09-30T09:24:35.698Z,70.3
2018-09-30T09:25:34.769Z,69.92
2018-09-30T09:26:33.321Z,69.54
2018-09-30T09:29:07.294Z,69.44
2018-09-30T09:30:40.805Z,69.44
2018-09-30T09:31:39.708Z,69.44
2018-09-30T09:32:38.461Z,69.48
2018-09-30T09:33:37.904Z,69.35
2018-09-30T09:50:17.093Z,68.42
2018-09-30T09:52:57.270Z,68.55
2018-09-30T09:53:57.032Z,68.07
